createdAt,value
2022-10-16T00:01:36.759Z,21.60
2022-10-16T00:04:03.666Z,21.60
2022-10-16T00:06:30.666Z,21.60
2022-10-16T00:08:57.554Z,21.60
2022-10-16T00:11:34.253Z,21.60
2022-10-16T00:14:02.158Z,21.60
2022-10-16T00:16:29.225Z,21.50
2022-10-16T00:18:56.118Z,21.60
2022-10-16T00:21:24.915Z,21.60
2022-10-16T00:23:52.878Z,21.50
2022-10-16T00:26:19.847Z,21.60
2022-10-16T00:28:48.214Z,21.60
2022-10-16T00:31:15.334Z,21.60
2022-10-16T00:33:42.137Z,21.60
2022-10-16T00:36:10.794Z,21.50
2022-10-16T00:38:38.789Z,21.50
2022-10-16T00:41:06.720Z,21.50
2022-10-16T00:43:42.119Z,21.50
2022-10-16T00:46:31.147Z,21.50
2022-10-16T00:49:01.855Z,21.50
2022-10-16T00:51:49.722Z,21.50
2022-10-16T00:54:24.822Z,21.50
2022-10-16T00:56:51.585Z,21.50
2022-10-16T00:59:25.717Z,21.50
2022-10-16T01:01:53.259Z,21.50
2022-10-16T01:04:19.994Z,21.50
2022-10-16T01:07:03.974Z,21.50
2022-10-16T01:09:48.470Z,21.50
2022-10-16T01:12:30.926Z,21.50
2022-10-16T01:15:15.825Z,21.50
2022-10-16T01:17:54.454Z,21.50
2022-10-16T01:20:35.492Z,21.50
2022-10-16T01:23:26.534Z,21.50
2022-10-16T01:26:02.191Z,21.50
2022-10-16T01:28:33.347Z,21.50
2022-10-16T01:31:00.321Z,21.50
2022-10-16T01:33:35.379Z,21.50
2022-10-16T01:36:07.122Z,21.50
2022-10-16T01:38:38.507Z,21.50
2022-10-16T01:41:34.313Z,21.50
2022-10-16T01:44:05.742Z,21.50
2022-10-16T01:46:32.995Z,21.50
2022-10-16T01:49:01.582Z,21.50
2022-10-16T01:51:28.302Z,21.50
2022-10-16T01:53:56.469Z,21.50
2022-10-16T01:56:23.742Z,21.50
2022-10-16T01:59:12.316Z,21.50
2022-10-16T02:01:41.131Z,21.50
2022-10-16T02:04:18.598Z,21.50
2022-10-16T02:06:45.310Z,21.50
2022-10-16T02:09:12.077Z,21.50
2022-10-16T02:11:38.800Z,21.50
2022-10-16T02:14:06.727Z,21.50
2022-10-16T02:16:38.448Z,21.50
2022-10-16T02:19:06.031Z,21.50
2022-10-16T02:21:45.856Z,21.50
2022-10-16T02:24:25.075Z,21.50
2022-10-16T02:27:21.095Z,21.50
2022-10-16T02:29:51.350Z,21.50
2022-10-16T02:32:21.653Z,21.50
2022-10-16T02:34:49.406Z,21.50
2022-10-16T02:37:16.814Z,21.50
2022-10-16T02:39:43.712Z,21.50
2022-10-16T02:42:16.620Z,21.50
2022-10-16T02:44:43.389Z,21.50
2022-10-16T02:47:10.357Z,21.50
2022-10-16T02:49:37.063Z,21.50
2022-10-16T02:52:04.034Z,21.50
2022-10-16T02:54:30.718Z,21.50
2022-10-16T02:56:57.527Z,21.50
2022-10-16T02:59:24.233Z,21.40
2022-10-16T03:01:51.556Z,21.50
2022-10-16T03:04:18.370Z,21.50
2022-10-16T03:06:45.095Z,21.50
2022-10-16T03:09:11.848Z,21.50
2022-10-16T03:11:38.551Z,21.50
2022-10-16T03:14:05.253Z,21.50
2022-10-16T03:16:31.950Z,21.50
2022-10-16T03:18:58.681Z,21.40
2022-10-16T03:21:25.811Z,21.50
2022-10-16T03:23:52.544Z,21.40
2022-10-16T03:26:19.279Z,21.40
2022-10-16T03:28:46.130Z,21.40
2022-10-16T03:31:12.887Z,21.50
2022-10-16T03:33:39.612Z,21.50
2022-10-16T03:36:06.523Z,21.50
2022-10-16T03:38:33.269Z,21.40
2022-10-16T03:41:00.027Z,21.50
2022-10-16T03:43:26.901Z,21.40
2022-10-16T03:45:53.620Z,21.50
2022-10-16T03:48:20.527Z,21.40
2022-10-16T03:50:49.200Z,21.40
2022-10-16T03:53:16.192Z,21.40
2022-10-16T03:55:43.625Z,21.40
2022-10-16T03:58:10.370Z,21.40
2022-10-16T04:00:37.100Z,21.40
2022-10-16T04:03:03.863Z,21.40
2022-10-16T04:05:30.552Z,21.40
2022-10-16T04:07:57.256Z,21.50
2022-10-16T04:10:23.961Z,21.40
2022-10-16T04:12:50.749Z,21.50
2022-10-16T04:15:17.465Z,21.40
2022-10-16T04:17:44.223Z,21.40
2022-10-16T04:20:10.938Z,21.40
2022-10-16T04:22:37.704Z,21.40
2022-10-16T04:25:04.683Z,21.40
2022-10-16T04:27:32.296Z,21.40
2022-10-16T04:29:59.906Z,21.40
2022-10-16T04:32:27.007Z,21.40
2022-10-16T04:34:54.126Z,21.40
2022-10-16T04:37:25.144Z,21.40
2022-10-16T04:39:52.502Z,21.40
2022-10-16T04:42:19.210Z,21.40
2022-10-16T04:44:45.938Z,21.40
2022-10-16T04:47:12.696Z,21.40
2022-10-16T04:49:39.397Z,21.40
2022-10-16T04:52:06.151Z,21.40
2022-10-16T04:54:32.928Z,21.50
2022-10-16T04:56:59.702Z,21.40
2022-10-16T04:59:26.558Z,21.50
2022-10-16T05:01:53.311Z,21.40
2022-10-16T05:04:20.081Z,21.50
2022-10-16T05:06:46.862Z,21.50
2022-10-16T05:09:13.592Z,21.50
2022-10-16T05:11:40.351Z,21.50
2022-10-16T05:14:07.127Z,21.50
2022-10-16T05:16:33.911Z,21.50
2022-10-16T05:19:27.293Z,21.50
2022-10-16T05:21:47.428Z,21.50
2022-10-16T05:24:14.203Z,21.50
2022-10-16T05:26:40.911Z,21.50
2022-10-16T05:29:07.679Z,21.50
2022-10-16T05:31:34.508Z,21.50
2022-10-16T05:34:01.340Z,21.50
2022-10-16T05:36:28.151Z,21.50
2022-10-16T05:38:54.995Z,21.50
2022-10-16T05:41:22.736Z,21.50
2022-10-16T05:43:49.825Z,21.50
2022-10-16T05:46:16.632Z,21.50
2022-10-16T05:48:43.380Z,21.50
2022-10-16T05:51:13.639Z,21.50
2022-10-16T05:53:40.604Z,21.50
2022-10-16T05:56:09.764Z,21.50
2022-10-16T05:58:37.383Z,21.50
2022-10-16T06:01:06.223Z,21.50
2022-10-16T06:03:32.962Z,21.50
2022-10-16T06:05:59.728Z,21.50
2022-10-16T06:08:26.498Z,21.50
2022-10-16T06:11:06.102Z,21.50
2022-10-16T06:13:32.833Z,21.50
2022-10-16T06:16:00.358Z,21.50
2022-10-16T06:18:27.974Z,21.50
2022-10-16T06:20:55.336Z,21.50
2022-10-16T06:23:22.126Z,21.50
2022-10-16T06:25:49.012Z,21.50
2022-10-16T06:28:16.089Z,21.50
2022-10-16T06:30:44.837Z,21.50
2022-10-16T06:33:12.287Z,21.50
2022-10-16T06:35:39.233Z,21.50
2022-10-16T06:38:06.132Z,21.50
2022-10-16T06:40:32.917Z,21.60
2022-10-16T06:42:59.663Z,21.50
2022-10-16T06:45:26.769Z,21.50
2022-10-16T06:47:53.480Z,21.50
2022-10-16T06:50:20.248Z,21.60
2022-10-16T06:52:46.976Z,21.50
2022-10-16T06:55:13.931Z,21.60
2022-10-16T06:57:40.707Z,21.60
2022-10-16T07:00:07.847Z,21.60
2022-10-16T07:02:34.566Z,21.50
2022-10-16T07:05:01.338Z,21.60
2022-10-16T07:07:28.035Z,21.60
2022-10-16T07:09:54.753Z,21.50
2022-10-16T07:12:21.468Z,21.50
2022-10-16T07:14:48.452Z,21.50
2022-10-16T07:17:15.141Z,21.60
2022-10-16T07:19:42.058Z,21.50
2022-10-16T07:22:08.807Z,21.60
2022-10-16T07:24:35.688Z,21.60
2022-10-16T07:27:02.590Z,21.60
2022-10-16T07:29:29.379Z,21.60
2022-10-16T07:31:56.294Z,21.60
2022-10-16T07:34:23.120Z,21.60
2022-10-16T07:36:50.955Z,21.60
2022-10-16T07:39:18.495Z,21.60
2022-10-16T07:41:45.245Z,21.60
2022-10-16T07:44:12.183Z,21.60
2022-10-16T07:46:38.931Z,21.60
2022-10-16T07:49:05.780Z,21.60
2022-10-16T07:51:32.512Z,21.50
2022-10-16T07:53:59.558Z,21.50
2022-10-16T07:56:26.415Z,21.60
2022-10-16T07:58:53.224Z,21.60
2022-10-16T08:01:20.275Z,21.60
2022-10-16T08:03:48.920Z,21.50
2022-10-16T08:06:16.398Z,21.60
2022-10-16T08:08:43.530Z,21.60
2022-10-16T08:11:10.600Z,21.60
2022-10-16T08:13:37.658Z,21.60
2022-10-16T08:16:08.855Z,21.50
2022-10-16T08:18:36.965Z,21.60
2022-10-16T08:21:04.394Z,21.60
2022-10-16T08:23:31.251Z,21.60
2022-10-16T08:26:02.486Z,21.60
2022-10-16T08:28:29.365Z,21.60
2022-10-16T08:30:57.874Z,21.60
2022-10-16T08:33:24.724Z,21.60
2022-10-16T08:35:53.518Z,21.60
2022-10-16T08:38:20.785Z,21.60
2022-10-16T08:40:51.180Z,21.60
2022-10-16T08:43:52.965Z,21.60
2022-10-16T08:46:52.416Z,21.60
2022-10-16T08:49:19.123Z,21.60
2022-10-16T08:51:47.580Z,21.60
2022-10-16T08:54:22.487Z,21.60
2022-10-16T08:56:49.224Z,21.60
2022-10-16T08:59:15.936Z,21.60
2022-10-16T09:01:46.740Z,21.60
2022-10-16T09:04:32.198Z,21.60
2022-10-16T09:07:26.341Z,21.60
2022-10-16T09:10:01.693Z,21.60
2022-10-16T09:12:43.532Z,21.50
2022-10-16T09:15:40.983Z,21.50
2022-10-16T09:18:28.577Z,21.40
2022-10-16T09:21:18.970Z,21.40
2022-10-16T09:23:46.084Z,21.40
2022-10-16T09:26:14.813Z,21.40
2022-10-16T09:28:42.322Z,21.40
2022-10-16T09:31:16.532Z,21.40
2022-10-16T09:33:43.749Z,21.40
2022-10-16T09:36:10.562Z,21.40
2022-10-16T09:38:37.724Z,21.40
2022-10-16T09:41:19.272Z,21.40
2022-10-16T09:43:55.787Z,21.30
2022-10-16T09:46:26.233Z,21.40
2022-10-16T09:48:54.799Z,21.40
2022-10-16T09:51:27.503Z,21.40
2022-10-16T09:53:58.685Z,21.40
2022-10-16T09:56:30.646Z,21.40
2022-10-16T09:58:59.456Z,21.40
2022-10-16T10:01:32.394Z,21.40
2022-10-16T10:04:03.794Z,21.40
2022-10-16T10:06:33.194Z,21.50
2022-10-16T10:09:22.157Z,21.50
2022-10-16T10:14:53.311Z,21.50
2022-10-16T10:17:46.832Z,21.50
2022-10-16T10:20:36.176Z,21.60
2022-10-16T10:23:24.850Z,21.60
2022-10-16T10:26:03.310Z,21.60
2022-10-16T10:29:13.160Z,21.60
2022-10-16T10:31:48.511Z,21.60
2022-10-16T10:34:36.233Z,21.60
2022-10-16T10:37:28.279Z,21.70
2022-10-16T10:40:24.271Z,21.70
2022-10-16T10:43:00.755Z,21.70
2022-10-16T10:45:42.996Z,21.70
2022-10-16T10:48:20.753Z,21.70
2022-10-16T10:50:52.513Z,21.80
2022-10-16T10:53:27.204Z,21.80
2022-10-16T10:55:55.889Z,21.80
2022-10-16T10:58:36.011Z,21.90
2022-10-16T11:04:27.732Z,21.90
2022-10-16T11:07:10.509Z,21.90
2022-10-16T11:09:48.673Z,21.90
2022-10-16T11:12:22.477Z,21.90
2022-10-16T11:15:23.242Z,22.00
2022-10-16T11:18:00.739Z,22.00
2022-10-16T11:20:29.293Z,22.00
2022-10-16T11:23:07.384Z,22.00
2022-10-16T11:25:34.306Z,22.00
2022-10-16T11:28:31.762Z,22.10
2022-10-16T11:31:14.076Z,22.10
2022-10-16T11:33:40.767Z,22.10
2022-10-16T11:36:28.574Z,22.10
2022-10-16T11:39:08.379Z,22.20
2022-10-16T11:42:04.276Z,22.20
2022-10-16T11:44:39.977Z,22.20
2022-10-16T11:47:54.026Z,22.30
2022-10-16T11:50:24.831Z,22.30
2022-10-16T11:53:15.230Z,22.40
2022-10-16T11:55:46.115Z,22.50
2022-10-16T11:58:55.870Z,22.50
2022-10-16T12:01:43.713Z,22.50
2022-10-16T12:04:18.586Z,22.50
2022-10-16T12:06:55.047Z,22.50
2022-10-16T12:09:27.331Z,22.60
2022-10-16T12:11:54.234Z,22.60
2022-10-16T12:17:36.920Z,22.70
2022-10-16T12:20:13.285Z,22.80
2022-10-16T12:23:05.597Z,22.80
2022-10-16T12:25:47.371Z,22.80
2022-10-16T12:28:21.407Z,22.80
2022-10-16T12:30:58.935Z,22.90
2022-10-16T12:33:28.068Z,22.90
2022-10-16T12:35:54.800Z,22.90
2022-10-16T12:38:50.659Z,23.00
2022-10-16T12:41:34.122Z,23.00
2022-10-16T12:44:03.628Z,23.00
2022-10-16T12:46:30.384Z,23.10
2022-10-16T12:49:14.964Z,23.10
2022-10-16T12:51:42.330Z,23.10
2022-10-16T12:54:30.351Z,23.00
2022-10-16T12:57:24.969Z,23.00
2022-10-16T12:59:55.904Z,22.90
2022-10-16T13:02:42.455Z,23.00
2022-10-16T13:05:30.915Z,22.90
2022-10-16T13:08:17.919Z,22.90
2022-10-16T13:10:47.394Z,22.90
2022-10-16T13:13:38.283Z,22.90
2022-10-16T13:16:14.664Z,22.80
2022-10-16T13:18:50.739Z,22.90
2022-10-16T13:21:29.644Z,23.00
2022-10-16T13:24:21.564Z,23.00
2022-10-16T13:26:57.354Z,23.10
2022-10-16T13:29:24.499Z,23.10
2022-10-16T13:31:51.295Z,23.10
2022-10-16T13:34:20.238Z,23.10
2022-10-16T13:36:48.907Z,23.20
2022-10-16T13:39:23.695Z,23.20
2022-10-16T13:42:15.977Z,23.20
2022-10-16T13:44:52.333Z,23.30
2022-10-16T13:47:23.146Z,23.20
2022-10-16T13:50:04.406Z,23.30
2022-10-16T13:52:31.305Z,23.30
2022-10-16T13:55:01.054Z,23.40
2022-10-16T13:57:29.425Z,23.40
2022-10-16T13:59:56.154Z,23.40
2022-10-16T14:02:36.051Z,23.30
2022-10-16T14:05:03.316Z,23.40
2022-10-16T14:07:34.045Z,23.30
2022-10-16T14:10:08.602Z,23.40
2022-10-16T14:12:35.611Z,23.30
2022-10-16T14:15:02.453Z,23.40
2022-10-16T14:17:30.833Z,23.30
2022-10-16T14:20:02.494Z,23.40
2022-10-16T14:22:36.294Z,23.30
2022-10-16T14:25:22.536Z,23.30
2022-10-16T14:28:06.232Z,23.30
2022-10-16T14:30:35.302Z,23.30
2022-10-16T14:33:03.297Z,23.30
2022-10-16T14:35:32.451Z,23.40
2022-10-16T14:37:59.915Z,23.30
2022-10-16T14:40:28.948Z,23.30
2022-10-16T14:42:56.008Z,23.30
2022-10-16T14:45:24.892Z,23.30
2022-10-16T14:47:56.604Z,23.30
2022-10-16T14:50:23.639Z,23.30
2022-10-16T14:52:50.446Z,23.30
2022-10-16T14:55:17.651Z,23.30
2022-10-16T14:57:44.664Z,23.30
2022-10-16T15:00:22.066Z,23.30
2022-10-16T15:02:49.974Z,23.20
2022-10-16T15:05:19.632Z,23.20
2022-10-16T15:07:46.948Z,23.20
2022-10-16T15:10:14.719Z,23.20
2022-10-16T15:12:41.658Z,23.20
2022-10-16T15:15:32.126Z,23.20
2022-10-16T15:18:01.413Z,23.20
2022-10-16T15:20:29.120Z,23.20
2022-10-16T15:22:55.982Z,23.20
2022-10-16T15:25:35.906Z,23.20
2022-10-16T15:28:03.534Z,23.10
2022-10-16T15:30:30.352Z,23.20
2022-10-16T15:32:57.235Z,23.20
2022-10-16T15:35:23.999Z,23.20
2022-10-16T15:37:50.817Z,23.20
2022-10-16T15:40:18.820Z,23.10
2022-10-16T15:42:45.767Z,23.20
2022-10-16T15:45:13.137Z,23.20
2022-10-16T15:47:44.981Z,23.10
2022-10-16T15:50:13.848Z,23.00
2022-10-16T15:52:41.034Z,23.10
2022-10-16T15:55:09.524Z,23.00
2022-10-16T15:57:39.196Z,23.00
2022-10-16T16:00:10.523Z,23.00
2022-10-16T16:02:38.059Z,23.00
2022-10-16T16:05:05.864Z,23.00
2022-10-16T16:07:36.574Z,22.90
2022-10-16T16:10:04.186Z,22.90
2022-10-16T16:12:31.101Z,22.90
2022-10-16T16:15:00.772Z,22.90
2022-10-16T16:17:31.862Z,22.80
2022-10-16T16:19:58.731Z,22.80
2022-10-16T16:22:26.162Z,22.80
2022-10-16T16:24:53.130Z,22.80
2022-10-16T16:27:20.858Z,22.70
2022-10-16T16:29:48.092Z,22.80
2022-10-16T16:32:14.921Z,22.70
2022-10-16T16:34:41.739Z,22.70
2022-10-16T16:37:08.570Z,22.70
2022-10-16T16:39:35.604Z,22.70
2022-10-16T16:42:04.018Z,22.70
2022-10-16T16:44:30.933Z,22.60
2022-10-16T16:46:57.636Z,22.60
2022-10-16T16:49:24.341Z,22.50
2022-10-16T16:51:51.057Z,22.50
2022-10-16T16:54:17.854Z,22.50
2022-10-16T16:56:45.317Z,22.50
2022-10-16T16:59:16.607Z,22.50
2022-10-16T17:01:43.430Z,22.40
2022-10-16T17:04:11.218Z,22.40
2022-10-16T17:06:38.102Z,22.40
2022-10-16T17:09:05.681Z,22.40
2022-10-16T17:11:32.408Z,22.40
2022-10-16T17:13:59.368Z,22.30
2022-10-16T17:16:28.296Z,22.40
2022-10-16T17:18:55.042Z,22.30
2022-10-16T17:21:22.677Z,22.30
2022-10-16T17:23:52.223Z,22.20
2022-10-16T17:26:19.176Z,22.20
2022-10-16T17:28:45.979Z,22.20
2022-10-16T17:31:20.371Z,22.20
2022-10-16T17:33:47.351Z,22.20
2022-10-16T17:36:15.057Z,22.20
2022-10-16T17:38:42.500Z,22.20
2022-10-16T17:41:35.886Z,22.20
2022-10-16T17:44:02.806Z,22.20
2022-10-16T17:46:29.761Z,22.20
2022-10-16T17:48:56.676Z,22.20
2022-10-16T17:51:28.313Z,22.20
2022-10-16T17:53:57.182Z,22.20
2022-10-16T17:56:24.260Z,22.30
2022-10-16T17:58:52.184Z,22.30
2022-10-16T18:01:24.028Z,22.30
2022-10-16T18:03:58.007Z,22.20
2022-10-16T18:06:25.274Z,22.20
2022-10-16T18:08:52.991Z,22.20
2022-10-16T18:11:20.351Z,22.20
2022-10-16T18:13:47.199Z,22.20
2022-10-16T18:16:14.643Z,22.20
2022-10-16T18:18:42.042Z,22.20
2022-10-16T18:21:11.018Z,22.20
2022-10-16T18:23:37.878Z,22.20
2022-10-16T18:26:05.681Z,22.20
2022-10-16T18:28:32.695Z,22.20
2022-10-16T18:31:00.701Z,22.20
2022-10-16T18:33:27.577Z,22.20
2022-10-16T18:35:54.401Z,22.10
2022-10-16T18:38:21.185Z,22.10
2022-10-16T18:40:48.364Z,22.10
2022-10-16T18:43:15.423Z,22.10
2022-10-16T18:45:42.746Z,22.10
2022-10-16T18:48:09.874Z,22.10
2022-10-16T18:50:36.834Z,22.20
2022-10-16T18:53:03.701Z,22.10
2022-10-16T18:55:31.022Z,22.20
2022-10-16T18:57:57.989Z,22.10
2022-10-16T19:00:24.735Z,22.20
2022-10-16T19:02:51.777Z,22.20
2022-10-16T19:05:18.818Z,22.20
2022-10-16T19:07:47.550Z,22.20
2022-10-16T19:10:14.744Z,22.20
2022-10-16T19:12:41.914Z,22.20
2022-10-16T19:15:10.364Z,22.20
2022-10-16T19:17:38.161Z,22.20
2022-10-16T19:20:06.250Z,22.20
2022-10-16T19:22:52.805Z,22.30
2022-10-16T19:25:23.326Z,22.20
2022-10-16T19:27:51.160Z,22.20
2022-10-16T19:30:18.701Z,22.20
2022-10-16T19:32:49.597Z,22.20
2022-10-16T19:35:16.703Z,22.20
2022-10-16T19:37:43.649Z,22.20
2022-10-16T19:40:10.999Z,22.20
2022-10-16T19:42:43.195Z,22.20
2022-10-16T19:45:11.538Z,22.20
2022-10-16T19:47:38.414Z,22.20
2022-10-16T19:50:10.063Z,22.20
2022-10-16T19:52:37.428Z,22.20
2022-10-16T19:55:06.529Z,22.20
2022-10-16T20:00:04.613Z,22.20
2022-10-16T20:02:31.422Z,22.20
2022-10-16T20:04:58.229Z,22.20
2022-10-16T20:07:25.374Z,22.10
2022-10-16T20:09:52.507Z,22.10
2022-10-16T20:12:19.442Z,22.10
2022-10-16T20:14:46.744Z,22.10
2022-10-16T20:17:13.860Z,22.10
2022-10-16T20:19:40.838Z,22.10
2022-10-16T20:22:07.754Z,22.10
2022-10-16T20:24:34.565Z,22.10
2022-10-16T20:27:02.271Z,22.10
2022-10-16T20:29:29.043Z,22.10
2022-10-16T20:31:55.812Z,22.10
2022-10-16T20:34:22.533Z,22.10
2022-10-16T20:36:50.791Z,22.10
2022-10-16T20:39:17.671Z,22.00
2022-10-16T20:41:44.436Z,22.10
2022-10-16T20:44:11.297Z,22.00
2022-10-16T20:46:38.059Z,22.10
2022-10-16T20:49:10.733Z,22.10
2022-10-16T20:51:43.995Z,22.10
2022-10-16T20:54:10.840Z,22.10
2022-10-16T20:56:37.741Z,22.10
2022-10-16T20:59:04.877Z,22.10
2022-10-16T21:01:32.047Z,22.10
2022-10-16T21:04:00.240Z,22.10
2022-10-16T21:06:27.180Z,22.10
2022-10-16T21:08:53.971Z,22.10
2022-10-16T21:11:27.828Z,22.10
2022-10-16T21:13:55.678Z,22.10
2022-10-16T21:16:22.523Z,22.10
2022-10-16T21:18:49.496Z,22.10
2022-10-16T21:21:24.784Z,22.00
2022-10-16T21:23:51.654Z,22.10
2022-10-16T21:26:18.820Z,22.10
2022-10-16T21:28:45.670Z,22.10
2022-10-16T21:31:18.949Z,22.10
2022-10-16T21:33:46.282Z,22.10
2022-10-16T21:36:14.710Z,22.10
2022-10-16T21:38:41.533Z,22.10
2022-10-16T21:41:18.843Z,22.10
2022-10-16T21:43:45.911Z,22.10
2022-10-16T21:46:12.800Z,22.10
2022-10-16T21:48:39.520Z,22.00
2022-10-16T21:51:06.542Z,22.10
2022-10-16T21:53:33.373Z,22.10
2022-10-16T21:56:00.089Z,22.10
2022-10-16T21:58:26.948Z,22.10
2022-10-16T22:00:53.762Z,22.10
2022-10-16T22:03:20.600Z,22.10
2022-10-16T22:05:47.382Z,22.10
2022-10-16T22:08:15.844Z,22.10
2022-10-16T22:10:43.276Z,22.10
2022-10-16T22:13:09.986Z,22.00
2022-10-16T22:15:36.689Z,22.10
2022-10-16T22:18:03.481Z,22.10
2022-10-16T22:20:30.240Z,22.10
2022-10-16T22:22:56.955Z,22.00
2022-10-16T22:25:23.669Z,22.10
2022-10-16T22:27:50.374Z,22.00
2022-10-16T22:30:17.094Z,22.00
2022-10-16T22:32:43.802Z,22.10
2022-10-16T22:35:11.731Z,22.00
2022-10-16T22:37:38.680Z,22.00
2022-10-16T22:40:05.813Z,22.00
2022-10-16T22:42:32.569Z,22.00
2022-10-16T22:44:59.315Z,22.00
2022-10-16T22:47:26.456Z,22.00
2022-10-16T22:49:54.631Z,22.00
2022-10-16T22:52:21.406Z,22.00
2022-10-16T22:54:48.094Z,22.00
2022-10-16T22:57:14.810Z,22.00
2022-10-16T22:59:41.503Z,22.00
2022-10-16T23:02:08.235Z,22.00
2022-10-16T23:04:34.965Z,22.00
2022-10-16T23:07:01.713Z,22.00
2022-10-16T23:09:28.492Z,22.00
2022-10-16T23:11:55.215Z,22.00
2022-10-16T23:14:22.153Z,22.00
2022-10-16T23:16:49.296Z,22.00
2022-10-16T23:19:16.241Z,22.00
2022-10-16T23:21:43.073Z,22.00
2022-10-16T23:24:09.835Z,22.00
2022-10-16T23:26:36.542Z,22.00
2022-10-16T23:29:03.402Z,22.00
2022-10-16T23:31:30.304Z,22.00
2022-10-16T23:33:57.384Z,22.00
2022-10-16T23:36:24.126Z,22.00
2022-10-16T23:38:51.195Z,22.00
2022-10-16T23:41:18.879Z,22.00
2022-10-16T23:43:45.603Z,22.00
2022-10-16T23:48:56.899Z,22.00
2022-10-16T23:51:23.725Z,22.00
2022-10-16T23:53:50.714Z,22.00
2022-10-16T23:56:17.438Z,22.00
2022-10-16T23:58:44.288Z,22.00
